Time;durP1;ratioP1;P1;durP2;ratioP2;P2;SDS_P1;SDS_P2;PMS_P1;PMS_P2;Temp;Humidity;BMP_temperature;BMP_pressure;BME280_temperature;BME280_humidity;BME280_pressure;Samples;Min_cycle;Max_cycle;Signal;HPM_P1;HPM_P2
2022/02/08 00:00:09;;;;;;;7.03;0.88;;;;;;;2.65;54.57;102147.34;5032848;28;20032;-73
2022/02/08 00:02:37;;;;;;;13.85;1.17;;;;;;;2.56;55.11;102142.06;5015635;28;20115;-72
2022/02/08 00:05:06;;;;;;;2.10;0.55;;;;;;;2.74;54.86;102136.28;4995861;28;20665;-72
2022/02/08 00:07:33;;;;;;;9.60;1.02;;;;;;;2.53;55.94;102136.81;5003172;28;20779;-73
2022/02/08 00:10:00;;;;;;;14.82;1.33;;;;;;;2.57;56.13;102146.34;5005037;28;20046;-72
2022/02/08 00:12:26;;;;;;;11.02;1.65;;;;;;;1.95;58.74;102134.25;5004934;28;20041;-74
2022/02/08 00:14:53;;;;;;;11.55;1.52;;;;;;;2.17;57.47;102127.72;5011663;28;20518;-73
2022/02/08 00:17:19;;;;;;;6.68;0.90;;;;;;;2.06;58.93;102130.13;4990180;28;20041;-73
2022/02/08 00:19:44;;;;;;;9.23;1.35;;;;;;;2.38;57.66;102136.63;5004673;28;20115;-74
2022/02/08 00:22:10;;;;;;;10.88;1.38;;;;;;;2.08;58.91;102137.91;5004186;28;20084;-73
2022/02/08 00:24:35;;;;;;;22.73;1.27;;;;;;;2.27;58.79;102129.59;5022120;28;20061;-74
2022/02/08 00:27:01;;;;;;;21.02;1.45;;;;;;;2.33;58.49;102124.53;5004738;28;20038;-73
2022/02/08 00:29:26;;;;;;;9.27;2.63;;;;;;;2.34;58.58;102134.00;5008875;28;20051;-73
2022/02/08 00:31:52;;;;;;;12.65;1.23;;;;;;;2.22;59.12;102123.50;5017785;28;20029;-73
2022/02/08 00:34:18;;;;;;;17.63;1.75;;;;;;;1.98;59.98;102136.91;5005085;28;20035;-73
2022/02/08 00:36:44;;;;;;;14.70;2.05;;;;;;;2.07;60.58;102136.19;5005200;28;20038;-73
2022/02/08 00:39:11;;;;;;;9.20;3.15;;;;;;;2.15;60.00;102124.25;5002648;28;20033;-73
2022/02/08 00:41:37;;;;;;;16.55;2.65;;;;;;;2.39;59.89;102122.88;5007428;28;20511;-73
2022/02/08 00:44:10;;;;;;;10.90;2.08;;;;;;;1.77;61.79;102116.75;5023192;28;20033;-74
2022/02/08 00:46:46;;;;;;;19.38;3.08;;;;;;;2.25;60.78;102118.38;5015594;28;20037;-72
2022/02/08 00:49:13;;;;;;;17.25;2.78;;;;;;;2.00;61.26;102114.56;5038383;28;20474;-73
2022/02/08 00:51:42;;;;;;;14.48;2.38;;;;;;;2.40;60.00;102112.59;5025965;28;20041;-72
2022/02/08 00:54:09;;;;;;;7.60;1.98;;;;;;;2.33;60.71;102114.22;5019028;28;20470;-73
2022/02/08 00:56:38;;;;;;;6.00;2.08;;;;;;;2.07;61.79;102110.38;5005759;28;20285;-73
2022/02/08 00:59:05;;;;;;;18.30;3.20;;;;;;;2.24;61.20;102108.03;4995464;28;20565;-73
2022/02/08 01:01:35;;;;;;;13.23;3.00;;;;;;;2.12;61.70;102107.00;5007540;28;20037;-73
2022/02/08 01:04:01;;;;;;;13.43;2.30;;;;;;;1.87;62.72;102098.03;5004747;28;20099;-73
2022/02/08 01:06:28;;;;;;;14.00;2.95;;;;;;;1.81;62.58;102115.97;5005494;28;20028;-72
2022/02/08 01:09:05;;;;;;;14.65;3.03;;;;;;;2.20;61.84;102111.41;5019199;28;20044;-72
2022/02/08 01:11:30;;;;;;;16.95;3.30;;;;;;;2.03;62.20;102100.84;5024816;28;20060;-72
2022/02/08 01:13:56;;;;;;;14.88;2.63;;;;;;;2.41;61.58;102096.25;5004537;28;20076;-72
2022/02/08 01:16:21;;;;;;;14.40;2.50;;;;;;;2.45;61.08;102098.03;5002468;28;20117;-72
2022/02/08 01:18:49;;;;;;;15.00;3.40;;;;;;;2.32;61.81;102096.13;5003305;28;20435;-72
2022/02/08 01:21:15;;;;;;;10.00;3.40;;;;;;;2.36;61.77;102092.75;4994737;28;20457;-72
2022/02/08 01:23:40;;;;;;;21.00;3.47;;;;;;;2.45;61.48;102100.59;5002543;28;20080;-72
2022/02/08 01:26:12;;;;;;;9.38;3.13;;;;;;;2.65;61.23;102087.97;5003657;28;20114;-72
2022/02/08 01:28:48;;;;;;;12.57;3.97;;;;;;;2.60;61.73;102091.31;5000451;28;20685;-72
2022/02/08 01:31:15;;;;;;;20.27;5.68;;;;;;;2.34;62.45;102090.13;5030293;28;20029;-72
2022/02/08 01:34:07;;;;;;;21.85;3.90;;;;;;;2.64;61.06;102093.09;5011099;28;20080;-75
2022/02/08 01:39:27;;;;;;;19.00;4.90;;;;;;;2.14;63.55;102076.94;5006584;28;20057;-74
2022/02/08 01:49:31;;;;;;;12.88;5.25;;;;;;;2.59;62.11;102048.31;5002440;28;20018;-74
2022/02/08 01:52:00;;;;;;;17.95;5.68;;;;;;;2.56;62.45;102043.97;5007227;28;20186;-73
2022/02/08 01:54:27;;;;;;;17.40;5.32;;;;;;;2.77;61.88;102043.34;4991743;28;20030;-74
2022/02/08 01:56:54;;;;;;;9.15;4.63;;;;;;;2.32;63.22;102042.81;5001935;28;20030;-73
2022/02/08 01:59:21;;;;;;;15.15;4.90;;;;;;;2.56;62.82;102038.81;5004672;28;20032;-74
2022/02/08 02:01:48;;;;;;;10.50;4.63;;;;;;;2.47;62.62;102030.97;5017346;28;20034;-74
2022/02/08 02:04:13;;;;;;;11.52;5.00;;;;;;;3.19;61.28;102032.59;5000709;28;20029;-73
2022/02/08 02:06:42;;;;;;;8.57;3.60;;;;;;;2.56;62.80;102019.03;5003078;28;20037;-73
2022/02/08 02:09:13;;;;;;;19.20;4.85;;;;;;;2.97;61.35;102021.19;5004393;28;20390;-73
2022/02/08 02:11:39;;;;;;;12.80;4.53;;;;;;;2.54;63.51;102017.28;5005991;28;20034;-74
2022/02/08 02:14:04;;;;;;;10.90;4.43;;;;;;;2.92;62.33;102019.41;5018395;28;20040;-74
2022/02/08 02:16:43;;;;;;;9.95;4.32;;;;;;;2.76;62.74;102034.75;5004956;28;20029;-74
2022/02/08 02:19:09;;;;;;;14.32;6.15;;;;;;;2.98;62.57;102027.22;5005531;28;20580;-74
2022/02/08 02:21:39;;;;;;;10.45;5.57;;;;;;;2.99;62.05;102008.28;5005260;28;20060;-74
2022/02/08 02:24:05;;;;;;;17.65;6.60;;;;;;;2.26;64.70;102019.50;5001471;28;20490;-73
2022/02/08 02:26:30;;;;;;;10.57;5.07;;;;;;;2.95;63.04;102009.97;5005455;28;20410;-73
2022/02/08 02:28:56;;;;;;;14.20;5.38;;;;;;;2.96;63.20;102006.53;4991985;28;20041;-74
2022/02/08 02:31:22;;;;;;;10.43;5.68;;;;;;;3.37;61.95;102015.56;5010371;28;20033;-73
2022/02/08 02:33:50;;;;;;;17.75;7.07;;;;;;;2.74;63.87;102018.38;4993112;28;20041;-73
2022/02/08 02:36:15;;;;;;;17.55;5.78;;;;;;;3.14;62.95;102018.78;5012794;28;20029;-72
2022/02/08 02:38:41;;;;;;;14.23;6.45;;;;;;;2.74;64.08;102022.66;5020030;28;20553;-73
2022/02/08 02:41:08;;;;;;;12.65;5.95;;;;;;;3.48;61.75;102023.41;5024528;28;20478;-73
2022/02/08 02:43:40;;;;;;;9.52;5.72;;;;;;;3.01;63.04;102016.06;5012374;28;20057;-73
2022/02/08 02:46:06;;;;;;;16.92;5.68;;;;;;;3.37;62.22;102038.81;5008501;28;20037;-74
2022/02/08 02:48:32;;;;;;;11.35;5.13;;;;;;;3.29;63.03;102027.53;5005872;28;20038;-73
2022/02/08 02:50:58;;;;;;;7.53;4.72;;;;;;;2.97;63.89;102017.72;4989136;28;20687;-74
2022/02/08 02:53:35;;;;;;;9.93;4.90;;;;;;;3.00;63.99;102010.00;5002449;28;20506;-73
2022/02/08 02:56:07;;;;;;;;;;;;;;;3.77;61.61;102005.50;5010400;28;20108;-74
2022/02/08 02:58:36;;;;;;;13.57;4.47;;;;;;;3.47;62.33;101996.69;5023971;28;20389;-74
2022/02/08 03:01:28;;;;;;;8.13;4.43;;;;;;;3.27;63.09;102011.13;5008926;28;20033;-73
2022/02/08 03:04:23;;;;;;;14.02;5.03;;;;;;;3.33;63.67;101995.69;5008899;28;20066;-73
2022/02/08 03:20:21;;;;;;;;;;;;;;;3.08;64.57;101998.03;5036768;28;20039;-74
2022/02/08 03:22:48;;;;;;;10.63;4.93;;;;;;;3.27;63.76;101993.03;5023911;28;20463;-74
2022/02/08 03:25:14;;;;;;;10.55;4.93;;;;;;;3.53;62.62;102001.03;5027560;28;20033;-75
2022/02/08 03:27:40;;;;;;;6.90;4.25;;;;;;;3.42;63.35;101998.34;5016430;28;20042;-73
2022/02/08 03:30:08;;;;;;;10.15;4.53;;;;;;;4.12;61.36;102007.41;5008339;28;20144;-73
2022/02/08 03:32:34;;;;;;;9.05;3.90;;;;;;;3.51;63.02;101998.41;4987097;28;20042;-72
2022/02/08 03:35:00;;;;;;;10.88;5.45;;;;;;;3.24;63.91;102006.78;5006228;28;20069;-72
2022/02/08 03:37:28;;;;;;;13.68;6.35;;;;;;;3.69;62.91;101997.69;5005940;28;20038;-72
2022/02/08 03:40:03;;;;;;;10.77;6.72;;;;;;;3.75;62.98;101986.53;5005254;28;20079;-72
2022/02/08 03:42:36;;;;;;;13.30;5.63;;;;;;;3.51;63.28;101992.41;5011210;28;20121;-72
2022/02/08 03:45:10;;;;;;;15.55;6.53;;;;;;;4.08;61.74;102008.28;5028258;28;20094;-74
2022/02/08 03:47:36;;;;;;;16.08;6.57;;;;;;;3.63;63.56;101989.03;5015435;28;20041;-74
2022/02/08 03:50:04;;;;;;;14.82;8.63;;;;;;;3.75;63.37;101989.13;5025317;28;20033;-73
2022/02/08 03:52:29;;;;;;;17.85;7.22;;;;;;;3.87;62.97;101989.19;5038965;28;20043;-73
2022/02/08 03:54:57;;;;;;;15.80;7.63;;;;;;;3.92;62.79;101984.91;5024283;28;20059;-73
2022/02/08 03:57:25;;;;;;;16.23;8.00;;;;;;;4.45;61.18;101992.91;5039165;28;20344;-72
2022/02/08 03:59:53;;;;;;;20.88;7.78;;;;;;;4.41;61.18;101997.22;5028438;28;20476;-73
2022/02/08 04:07:49;;;;;;;15.77;7.30;;;;;;;4.16;62.70;102004.88;5015369;28;20318;-73
2022/02/08 04:10:21;;;;;;;26.83;8.38;;;;;;;3.86;63.46;101995.22;5022020;28;20053;-73
2022/02/08 04:41:39;;;;;;;20.30;8.20;;;;;;;4.16;63.81;101988.47;5006424;28;20699;-73
2022/02/08 04:47:06;;;;;;;16.40;6.43;;;;;;;4.32;63.46;101981.63;5025584;28;20048;-74
2022/02/08 04:49:31;;;;;;;20.75;7.22;;;;;;;4.81;61.45;101984.34;5021793;28;20072;-74
2022/02/08 04:52:04;;;;;;;17.08;7.85;;;;;;;4.62;62.58;101973.13;5023880;28;20140;-75
2022/02/08 04:54:40;;;;;;;19.73;7.40;;;;;;;4.74;62.22;101967.94;5022931;28;20632;-74
2022/02/08 04:57:18;;;;;;;21.90;6.65;;;;;;;4.50;62.98;101973.94;5032182;28;20051;-75
2022/02/08 05:00:12;;;;;;;14.55;6.18;;;;;;;4.75;62.10;101974.00;5038276;28;20037;-75
2022/02/08 05:35:25;;;;;;;14.25;4.90;;;;;;;4.88;61.98;101977.50;5003290;28;20123;-76
2022/02/08 05:43:18;;;;;;;16.27;4.05;;;;;;;4.95;61.52;101971.47;5005990;28;20034;-75
2022/02/08 05:48:26;;;;;;;12.82;4.60;;;;;;;5.70;59.16;101973.16;5004190;28;20525;-75
2022/02/08 05:50:59;;;;;;;20.38;4.07;;;;;;;5.49;59.91;101954.19;5002662;28;20077;-75
2022/02/08 05:53:30;;;;;;;18.02;4.72;;;;;;;5.38;60.47;101949.00;5002506;28;20132;-75
2022/02/08 05:55:56;;;;;;;13.83;4.43;;;;;;;5.21;60.77;101943.84;5002544;28;20049;-75
2022/02/08 05:58:22;;;;;;;15.90;4.85;;;;;;;5.45;60.56;101940.34;5002607;28;20041;-75
2022/02/08 06:00:48;;;;;;;14.63;4.82;;;;;;;5.61;59.41;101959.38;5004016;28;20056;-75
2022/02/08 06:03:30;;;;;;;15.60;3.42;;;;;;;5.10;61.18;101955.94;5032991;28;20102;-75
2022/02/08 06:05:57;;;;;;;13.30;3.13;;;;;;;5.15;61.34;101958.53;5036964;28;20029;-74
2022/02/08 06:08:23;;;;;;;10.95;3.75;;;;;;;5.76;59.11;101955.84;5015700;28;20465;-73
2022/02/08 06:10:52;;;;;;;8.82;2.78;;;;;;;5.96;58.14;101955.81;5008855;28;20038;-76
2022/02/08 06:13:20;;;;;;;11.55;3.10;;;;;;;5.12;60.56;101949.00;5009395;28;20045;-75
2022/02/08 06:15:49;;;;;;;11.32;3.33;;;;;;;5.22;61.17;101944.72;5001770;28;20088;-74
2022/02/08 06:18:15;;;;;;;12.70;4.05;;;;;;;5.23;60.59;101923.97;5005726;28;20034;-73
2022/02/08 06:20:40;;;;;;;16.27;3.63;;;;;;;4.49;62.61;101929.94;5000152;28;20132;-73
2022/02/08 06:23:06;;;;;;;15.88;3.22;;;;;;;5.04;61.64;101919.66;5003773;28;20503;-73
2022/02/08 06:25:33;;;;;;;14.15;3.40;;;;;;;5.05;61.66;101926.56;5004625;28;20476;-73
2022/02/08 06:27:58;;;;;;;13.93;3.42;;;;;;;5.29;60.50;101930.03;5001726;28;23182;-73
2022/02/08 06:30:24;;;;;;;9.45;2.83;;;;;;;4.84;61.93;101928.25;5011451;28;20037;-72
2022/02/08 06:32:55;;;;;;;7.78;2.28;;;;;;;4.96;61.26;101929.16;5004407;28;20065;-74
2022/02/08 06:35:25;;;;;;;15.07;2.60;;;;;;;5.30;61.01;101931.72;5017862;28;20034;-75
2022/02/08 06:37:52;;;;;;;15.35;2.90;;;;;;;5.16;60.94;101924.81;5017871;28;21180;-73
2022/02/08 06:40:18;;;;;;;10.68;3.10;;;;;;;4.97;61.47;101929.16;5002624;28;20125;-73
2022/02/08 06:42:45;;;;;;;12.05;2.35;;;;;;;5.14;60.97;101936.91;5023816;28;20044;-73
2022/02/08 06:45:11;;;;;;;9.77;2.22;;;;;;;5.24;60.75;101922.25;5019523;28;20034;-74
2022/02/08 06:47:38;;;;;;;7.60;2.55;;;;;;;5.12;60.70;101933.47;5016252;28;20232;-73
2022/02/08 06:50:05;;;;;;;13.93;1.98;;;;;;;5.53;59.64;101924.78;5029087;28;20171;-74
2022/02/08 06:52:31;;;;;;;6.00;1.35;;;;;;;5.82;59.07;101934.22;5019609;28;20663;-73
2022/02/08 06:54:57;;;;;;;16.02;1.85;;;;;;;5.20;60.73;101923.97;5022948;28;20052;-73
2022/02/08 06:57:24;;;;;;;12.60;1.92;;;;;;;5.05;61.47;101934.34;5023776;28;20045;-76
2022/02/08 06:59:52;;;;;;;8.10;1.15;;;;;;;5.37;60.55;101933.44;5031297;28;20048;-75
2022/02/08 07:02:18;;;;;;;11.13;1.63;;;;;;;5.57;59.45;101936.00;5040502;28;20030;-76
2022/02/08 07:04:44;;;;;;;5.35;1.23;;;;;;;5.50;59.64;101935.16;5026607;28;20192;-74
2022/02/08 07:07:12;;;;;;;9.05;1.75;;;;;;;5.56;59.37;101940.34;5022531;28;20041;-75
2022/02/08 07:09:39;;;;;;;7.28;1.17;;;;;;;5.34;60.14;101936.06;5008842;28;20037;-75
2022/02/08 07:12:05;;;;;;;9.35;1.55;;;;;;;5.15;60.41;101937.81;5006539;28;20574;-74
2022/02/08 07:14:32;;;;;;;2.95;0.93;;;;;;;5.64;59.02;101937.75;5005996;28;20029;-74
2022/02/08 07:16:58;;;;;;;5.97;1.35;;;;;;;5.83;58.58;101941.13;5005258;28;20120;-77
2022/02/08 07:19:24;;;;;;;12.13;1.50;;;;;;;5.78;58.70;101948.94;5005180;28;20528;-75
2022/02/08 07:21:51;;;;;;;5.38;1.13;;;;;;;5.39;59.82;101948.16;4992201;28;20049;-74
2022/02/08 07:24:16;;;;;;;14.82;1.10;;;;;;;5.53;59.40;101944.69;5011384;28;20068;-75
2022/02/08 07:26:42;;;;;;;4.43;1.13;;;;;;;6.23;57.34;101948.78;5004864;28;20120;-75
2022/02/08 07:29:09;;;;;;;6.43;1.10;;;;;;;5.80;58.36;101946.34;5005846;28;20037;-75
2022/02/08 07:31:46;;;;;;;9.15;1.10;;;;;;;5.31;60.00;101943.84;5005575;28;20497;-74
2022/02/08 07:34:19;;;;;;;6.63;0.70;;;;;;;5.88;57.76;101941.97;4989955;28;20129;-76
2022/02/08 07:36:57;;;;;;;7.63;1.30;;;;;;;5.76;58.06;101932.50;5003876;28;20139;-76
2022/02/08 07:39:37;;;;;;;5.93;1.23;;;;;;;5.79;57.66;101927.31;4989942;28;20038;-71
2022/02/08 07:42:03;;;;;;;3.80;0.70;;;;;;;6.01;57.39;101922.91;5024204;28;20584;-73
2022/02/08 07:44:29;;;;;;;15.60;1.08;;;;;;;6.17;56.95;101922.84;5023182;28;20072;-73
2022/02/08 07:47:04;;;;;;;7.32;1.33;;;;;;;5.65;58.29;101924.75;5023327;28;20041;-73
2022/02/08 07:49:32;;;;;;;7.45;1.50;;;;;;;5.39;59.09;101934.31;5031590;28;20468;-75
2022/02/08 07:51:57;;;;;;;6.78;0.65;;;;;;;5.77;58.06;101941.16;5013954;28;20112;-74
2022/02/08 07:54:23;;;;;;;4.50;0.95;;;;;;;5.53;58.95;101924.78;5006002;28;20034;-76
2022/02/08 07:56:49;;;;;;;8.73;1.27;;;;;;;6.08;57.28;101936.72;5011574;28;20040;-75
2022/02/08 07:59:15;;;;;;;4.88;0.82;;;;;;;5.76;57.75;101942.88;4994494;28;20083;-73
2022/02/08 08:01:41;;;;;;;5.93;0.80;;;;;;;5.83;57.83;101946.31;5003177;28;20041;-72
2022/02/08 08:04:06;;;;;;;9.60;0.65;;;;;;;5.95;57.00;101943.72;5004627;28;20140;-74
2022/02/08 08:06:33;;;;;;;6.07;0.60;;;;;;;6.17;56.68;101943.59;5004330;28;20038;-73
2022/02/08 08:08:58;;;;;;;3.75;0.55;;;;;;;6.41;55.79;101933.13;5008186;28;20072;-73
2022/02/08 08:11:24;;;;;;;8.15;0.77;;;;;;;6.16;56.10;101936.69;4994760;28;20091;-74
2022/02/08 08:14:01;;;;;;;5.38;0.60;;;;;;;6.19;56.19;101931.47;5005365;28;20045;-74
2022/02/08 08:19:19;;;;;;;10.77;1.10;;;;;;;5.97;56.55;101934.19;5005260;28;20037;-73
2022/02/08 08:21:47;;;;;;;7.50;0.80;;;;;;;5.77;57.47;101941.16;5002397;28;20044;-74
2022/02/08 08:24:13;;;;;;;10.57;0.75;;;;;;;5.48;57.73;101952.47;5019534;28;20407;-73
2022/02/08 08:26:39;;;;;;;10.30;1.02;;;;;;;6.04;55.82;101948.84;5007956;28;20034;-75
2022/02/08 08:29:06;;;;;;;6.22;1.30;;;;;;;5.99;56.46;101955.78;5007286;28;20041;-74
2022/02/08 08:31:32;;;;;;;9.55;0.75;;;;;;;6.11;55.83;101969.59;5011989;28;20033;-74
2022/02/08 08:33:58;;;;;;;4.13;0.70;;;;;;;6.46;55.15;101957.34;5008675;28;20037;-74
2022/02/08 08:36:25;;;;;;;4.40;0.52;;;;;;;5.84;56.34;101961.03;5003379;28;20448;-72
2022/02/08 08:38:54;;;;;;;11.63;1.15;;;;;;;6.16;55.82;101986.03;5005606;28;20045;-71
2022/02/08 08:41:28;;;;;;;7.68;0.82;;;;;;;5.75;56.85;101979.19;5029762;28;20032;-71
2022/02/08 08:51:50;;;;;;;9.93;0.60;;;;;;;5.75;57.08;101981.78;5003504;28;20041;-73
2022/02/08 08:54:16;;;;;;;7.00;1.10;;;;;;;6.26;55.46;101967.81;5006558;28;20560;-75
2022/02/08 08:56:44;;;;;;;8.93;1.00;;;;;;;6.12;55.92;101969.56;5038551;28;20048;-73
2022/02/08 08:59:13;;;;;;;12.52;1.85;;;;;;;6.55;54.48;101955.56;5023763;28;23526;-72
2022/02/08 09:01:39;;;;;;;6.30;0.50;;;;;;;6.29;55.74;101966.97;5020495;28;20400;-73
2022/02/08 09:04:06;;;;;;;15.38;1.50;;;;;;;6.29;55.23;101974.75;5020209;28;20041;-72
2022/02/08 09:06:33;;;;;;;13.77;1.05;;;;;;;5.95;56.56;101981.75;5021503;28;20048;-73
2022/02/08 09:09:00;;;;;;;3.88;0.70;;;;;;;6.99;53.47;101980.41;5006919;28;20037;-73
2022/02/08 09:29:09;;;;;;;5.78;1.00;;;;;;;6.18;55.74;101998.13;5002996;28;20694;-72
2022/02/08 09:31:37;;;;;;;3.10;0.98;;;;;;;6.18;55.42;101994.66;5002069;28;20573;-71
2022/02/08 09:34:05;;;;;;;7.15;1.52;;;;;;;6.05;55.99;102001.63;5020668;28;20051;-72
2022/02/08 09:36:30;;;;;;;12.70;1.08;;;;;;;5.91;56.48;102009.44;5024352;28;20128;-71
2022/02/08 09:38:56;;;;;;;5.70;0.30;;;;;;;6.27;55.88;102008.47;5019614;28;20032;-72
2022/02/08 09:41:23;;;;;;;7.57;0.70;;;;;;;6.20;55.63;101998.13;5021453;28;20033;-71
2022/02/08 09:43:50;;;;;;;11.32;0.70;;;;;;;6.23;55.42;102000.69;5019469;28;20052;-72
2022/02/08 09:46:17;;;;;;;10.77;1.15;;;;;;;6.41;54.91;102000.66;5023305;28;20041;-73
2022/02/08 09:48:55;;;;;;;7.68;0.90;;;;;;;6.22;54.98;101991.19;5017792;28;20053;-73
2022/02/08 09:51:22;;;;;;;16.08;1.50;;;;;;;6.75;53.96;102000.47;5019209;28;20064;-73
2022/02/08 09:53:55;;;;;;;11.02;0.75;;;;;;;6.63;54.21;102004.00;5019167;28;20037;-73
2022/02/08 09:56:23;;;;;;;13.55;0.75;;;;;;;6.84;53.96;101990.03;5019877;28;20040;-74
2022/02/08 09:58:52;;;;;;;10.10;0.80;;;;;;;6.84;53.65;102000.44;5017402;28;20047;-71
2022/02/08 10:01:23;;;;;;;9.73;0.98;;;;;;;6.49;54.58;101998.88;5018287;28;20037;-73
2022/02/08 10:03:57;;;;;;;5.20;0.60;;;;;;;6.91;53.54;101996.91;5019602;28;20042;-73
2022/02/08 10:06:24;;;;;;;4.75;0.82;;;;;;;6.94;53.52;102005.56;5018800;28;20338;-73
2022/02/08 10:09:04;;;;;;;5.22;0.52;;;;;;;6.54;54.66;102011.84;5020813;28;20806;-72
2022/02/08 10:11:55;;;;;;;7.75;0.75;;;;;;;6.97;53.55;101995.13;5021601;28;20031;-73
2022/02/08 10:14:39;;;;;;;4.13;0.63;;;;;;;6.91;53.04;101996.91;5024291;28;20073;-73
2022/02/08 10:22:18;;;;;;;9.88;0.50;;;;;;;6.62;54.81;102014.41;5021087;28;20091;-73
2022/02/08 10:24:49;;;;;;;2.55;0.73;;;;;;;6.99;53.62;102009.00;5018142;28;20041;-72
2022/02/08 10:27:25;;;;;;;10.90;0.80;;;;;;;6.91;53.71;102022.91;5020321;28;20146;-72
2022/02/08 10:37:35;;;;;;;7.22;0.90;;;;;;;6.56;55.17;102017.91;5021576;28;20552;-71
2022/02/08 10:38:08;;;;;;;7.30;1.17;;;;;;;6.58;54.53;102033.50;5004639;28;20041;-71
2022/02/08 10:40:38;;;;;;;12.18;1.05;;;;;;;6.38;55.49;102031.84;5022734;28;20068;-72
2022/02/08 10:43:07;;;;;;;7.95;0.90;;;;;;;6.36;55.50;102035.31;5013375;28;20037;-71
2022/02/08 10:45:39;;;;;;;11.55;0.93;;;;;;;6.82;54.11;102033.38;5020836;28;20456;-72
2022/02/08 10:48:10;;;;;;;8.40;0.85;;;;;;;6.99;53.87;102032.38;5037088;28;20129;-72
2022/02/08 10:50:43;;;;;;;10.10;1.00;;;;;;;6.24;56.09;102062.16;5020565;28;20041;-72
2022/02/08 10:53:11;;;;;;;6.75;0.80;;;;;;;6.55;55.55;102039.56;5036806;28;20343;-72
2022/02/08 10:55:52;;;;;;;12.75;0.80;;;;;;;6.32;55.78;102033.59;5021487;28;20044;-72
2022/02/08 11:03:55;;;;;;;8.93;0.98;;;;;;;6.11;56.67;102050.06;5021423;28;20430;-72
2022/02/08 11:06:28;;;;;;;8.50;1.17;;;;;;;6.89;54.73;102045.44;5020278;28;20090;-72
2022/02/08 11:09:17;;;;;;;10.35;1.05;;;;;;;7.06;54.01;102052.25;5036637;28;20589;-72
2022/02/08 11:12:24;;;;;;;9.20;0.93;;;;;;;6.96;54.43;102066.22;5018630;28;20316;-72
2022/02/08 11:20:30;;;;;;;9.77;1.13;;;;;;;6.98;54.61;102051.47;5021631;28;20033;-72
2022/02/08 11:23:06;;;;;;;7.80;1.27;;;;;;;7.04;54.66;102054.00;5009867;28;20529;-72
2022/02/08 11:25:40;;;;;;;11.18;1.02;;;;;;;6.88;54.95;102067.09;5019903;28;20083;-71
2022/02/08 11:28:12;;;;;;;11.10;0.50;;;;;;;7.04;54.38;102069.59;5020490;28;20394;-72
2022/02/08 11:30:50;;;;;;;16.95;1.75;;;;;;;6.53;56.12;102050.81;5021862;28;20159;-72
2022/02/08 11:33:54;;;;;;;7.93;0.65;;;;;;;7.05;54.56;102056.59;5025701;28;20041;-72
2022/02/08 11:44:57;;;;;;;6.95;0.88;;;;;;;6.70;55.46;102054.19;5021572;28;20171;-72
2022/02/08 11:47:36;;;;;;;10.23;1.25;;;;;;;6.78;55.07;102052.44;5030041;28;20041;-75
2022/02/08 11:50:23;;;;;;;14.15;0.90;;;;;;;6.86;55.54;102061.06;5024114;28;20648;-73
2022/02/08 11:53:13;;;;;;;9.95;0.88;;;;;;;6.86;55.52;102066.25;5018259;28;20041;-73
2022/02/08 11:56:15;;;;;;;10.60;0.98;;;;;;;6.88;55.32;102063.63;5027344;28;20444;-73
2022/02/08 12:12:48;;;;;;;;;;;;;;;6.29;58.52;102074.28;5022568;28;20053;-73
2022/02/08 12:50:07;;;;;;;14.07;1.17;;;;;;;6.90;56.41;102098.28;5009422;28;20515;-73
2022/02/08 12:57:04;;;;;;;12.68;1.05;;;;;;;6.36;59.50;102108.88;5009797;28;20128;-72
2022/02/08 14:01:47;;;;;;;13.50;1.38;;;;;;;6.49;60.61;102143.47;5005956;28;20524;-73
2022/02/08 14:21:51;;;;;;;12.60;1.13;;;;;;;5.83;62.12;102149.56;4999673;28;20030;-72
2022/02/08 14:24:30;;;;;;;10.18;1.60;;;;;;;5.65;62.63;102153.00;5015523;28;20041;-73
2022/02/08 14:29:49;;;;;;;11.50;1.52;;;;;;;6.17;61.13;102159.97;5014235;28;20468;-73
2022/02/08 15:09:44;;;;;;;13.07;1.58;;;;;;;5.69;62.29;102173.78;5004343;28;20417;-74
2022/02/08 15:12:16;;;;;;;20.10;2.50;;;;;;;5.80;62.28;102172.91;5008171;28;20496;-74
2022/02/08 15:14:52;;;;;;;12.80;1.42;;;;;;;6.17;61.16;102172.94;5000344;28;20041;-74
2022/02/08 15:17:17;;;;;;;12.77;1.50;;;;;;;5.69;62.21;102179.84;5009023;28;20036;-74
2022/02/08 15:19:45;;;;;;;18.58;1.40;;;;;;;5.81;61.98;102173.78;5038661;28;20537;-74
2022/02/08 15:22:11;;;;;;;12.80;1.30;;;;;;;5.77;62.24;102182.41;5026901;28;20034;-74
2022/02/08 15:24:39;;;;;;;10.40;1.80;;;;;;;6.13;61.10;102178.09;5007900;28;20042;-75
2022/02/08 15:27:05;;;;;;;8.32;0.88;;;;;;;5.82;61.66;102178.97;5009396;28;20041;-74
2022/02/08 15:29:32;;;;;;;12.13;1.23;;;;;;;5.75;61.98;102191.94;4992522;28;20029;-74
2022/02/08 15:31:58;;;;;;;12.48;1.63;;;;;;;6.19;61.03;102176.38;5008694;28;20033;-74
2022/02/08 15:34:24;;;;;;;10.93;1.02;;;;;;;6.25;60.74;102185.91;5022147;28;20021;-74
2022/02/08 15:36:49;;;;;;;12.73;1.33;;;;;;;6.01;61.20;102185.03;5020288;28;20383;-74
2022/02/08 15:39:16;;;;;;;10.27;1.08;;;;;;;5.84;61.86;102184.19;5007087;28;20041;-75
2022/02/08 15:41:41;;;;;;;9.68;0.95;;;;;;;6.12;61.24;102178.97;5005426;28;20395;-74
2022/02/08 15:44:09;;;;;;;13.45;1.95;;;;;;;5.48;63.03;102188.44;5013513;28;20045;-74
2022/02/08 15:46:35;;;;;;;14.30;1.52;;;;;;;5.58;62.26;102197.97;5004510;28;20044;-75
2022/02/08 15:49:03;;;;;;;18.02;2.00;;;;;;;6.18;60.97;102205.81;5024964;28;20127;-74
2022/02/08 15:51:42;;;;;;;6.88;1.00;;;;;;;5.52;63.17;102197.94;5030524;28;20032;-74
2022/02/08 16:09:45;;;;;;;10.25;1.17;;;;;;;5.97;61.61;102201.50;5006555;28;20029;-74
2022/02/08 16:20:14;;;;;;;11.40;1.77;;;;;;;6.07;61.88;102195.41;5009365;28;20095;-73
2022/02/08 16:23:22;;;;;;;6.32;1.50;;;;;;;5.90;61.97;102204.91;5007451;28;20061;-74
2022/02/08 16:31:17;;;;;;;9.45;1.35;;;;;;;6.20;61.47;102198.03;5003871;28;20466;-73
2022/02/08 17:00:27;;;;;;;4.57;0.90;;;;;;;6.55;61.21;102194.53;5022845;28;20151;-74
2022/02/08 17:02:58;;;;;;;7.97;1.02;;;;;;;6.29;62.07;102193.72;5001670;28;20529;-74
2022/02/08 17:05:23;;;;;;;3.47;1.00;;;;;;;6.32;62.13;102192.84;5022344;28;20132;-73
2022/02/08 17:07:50;;;;;;;4.13;1.13;;;;;;;6.46;60.75;102206.69;5022575;28;20037;-74
2022/02/08 17:35:06;;;;;;;11.02;2.45;;;;;;;6.47;61.00;102208.41;5002486;28;20418;-75
2022/02/08 17:48:21;;;;;;;13.30;2.95;;;;;;;6.09;62.48;102231.78;5016271;28;20102;-75
2022/02/08 17:50:52;;;;;;;14.65;3.10;;;;;;;6.37;61.45;102222.25;5019021;28;20133;-74
2022/02/08 17:53:18;;;;;;;13.63;3.58;;;;;;;6.33;61.61;102230.94;5003915;28;20522;-75
2022/02/08 17:55:44;;;;;;;18.23;4.22;;;;;;;5.87;63.08;102225.69;5000895;28;20048;-74
2022/02/08 17:58:10;;;;;;;10.50;3.88;;;;;;;5.74;63.41;102234.31;5002002;28;20651;-74
2022/02/08 18:00:36;;;;;;;12.40;4.47;;;;;;;6.11;61.92;102248.22;5019876;28;20025;-74
2022/02/08 18:03:06;;;;;;;22.33;6.00;;;;;;;6.40;60.90;102244.78;4999702;28;20037;-74
2022/02/08 18:05:34;;;;;;;10.80;4.65;;;;;;;6.01;62.37;102238.66;5003665;28;20492;-74
2022/02/08 18:07:59;;;;;;;9.88;4.82;;;;;;;6.11;62.39;102256.00;5010732;28;20040;-74
2022/02/08 18:10:26;;;;;;;12.73;5.38;;;;;;;6.20;61.92;102255.16;5019416;28;20077;-74
2022/02/08 18:12:56;;;;;;;16.50;5.60;;;;;;;6.14;61.83;102260.31;5008669;28;20033;-74
2022/02/08 18:15:25;;;;;;;12.07;3.67;;;;;;;5.73;63.45;102253.34;5004106;28;20037;-74
2022/02/08 18:17:58;;;;;;;10.52;4.85;;;;;;;6.35;61.46;102252.59;5001440;28;20045;-74
2022/02/08 18:20:35;;;;;;;20.48;6.30;;;;;;;6.11;62.36;102249.94;5005543;28;20033;-74
2022/02/08 18:23:34;;;;;;;15.90;5.25;;;;;;;5.98;63.05;102247.31;5003194;28;20045;-74
2022/02/08 19:03:34;;;;;;;13.00;4.82;;;;;;;5.88;63.58;102258.53;4994229;28;20407;-74
2022/02/08 19:17:08;;;;;;;8.02;2.80;;;;;;;6.60;60.99;102260.34;5004963;28;20034;-75
2022/02/08 19:22:02;;;;;;;10.00;3.90;;;;;;;5.74;63.63;102247.28;5004873;28;20152;-75
2022/02/08 19:24:32;;;;;;;12.85;3.88;;;;;;;6.34;61.39;102250.84;5005442;28;20042;-75
2022/02/08 19:27:00;;;;;;;10.07;4.55;;;;;;;6.25;61.80;102249.06;4985904;28;20056;-75
2022/02/08 19:29:29;;;;;;;17.13;5.70;;;;;;;6.27;61.91;102243.88;4988715;28;20092;-75
2022/02/08 19:31:55;;;;;;;9.13;4.95;;;;;;;6.27;62.36;102243.88;5000321;28;20547;-75
2022/02/08 19:34:25;;;;;;;20.05;6.05;;;;;;;6.27;62.09;102244.75;5004522;28;20030;-75
2022/02/08 19:36:53;;;;;;;17.30;5.32;;;;;;;6.39;61.43;102240.44;5000748;28;20533;-75